aviador You're here:

LFMT Decoded Metar

MONTPELLIER in FRANCE
Report Time2018-01-20 05:00:00
UTC Time2018-01-20 05:09:22
Flight Rules vfr VFR
Wind280° at 08 kt
W.Decomp.*RWY 30: 7.5 kt HW 2.7 kt LCW
W.Rank280° ranks 6
Current wind is below 280° avg. (9.4)
Visibility9999 m
Phenomena:N/A
Clouds:N/A
Expected CloudBase > 2,800 ft AGL from Temp-Dew spread
CeilingNone
Temp08°C (ISA -7)
Dew Point01°C (62% RH)
AAT3.3°C
QNH1020 hPa
Density Alt-961 ft
Elevation20 ft
Report Wrong Elevation
Raw Report
METAR LFMT 200500Z AUTO 28008KT CAVOK 08/01 Q1020 NOSIG=

Extra information for LFMT:More info

Metar Taf Metar & Taf Last 4 Metars F.Rules Stats Wind Profile Meteogram Temp Stats Airport Information Weather charts Add Link Nearby VenuesMetar ALERT Operation Metar Decoded Social comments